Flight Track Log - Related Links

Times and Time Zones

All times are in EDT time to prevent confusion due to time zone crossing. See the FLG3613 flight status page for this flight to view local times or setup timezone preferences in your user account.

Time Position Orientation Groundspeed Altitude Reporting Facility
EDT Latitude Longitude Course Direction KTS MPH feet Rate Location/Type
Sun 03:54:05 PM 42.1967 -83.3917 209° Southwest 162 186 1,200  Level Cleveland Center
Sun 03:55:06 PM 42.1542 -83.4233 212° Southwest 194 223 3,100 2,016 Climbing Cleveland Center
Sun 03:56:07 PM 42.1031 -83.4658 212° Southwest 218 251 5,300 2,311 Climbing Cleveland Center
Sun 03:57:08 PM 42.0478 -83.5081 210° Southwest 228 262 7,800 1,865 Climbing Cleveland Center
Sun 03:58:35 PM 41.9686 -83.5828 215° Southwest 278 320 9,900 1,143 Climbing Cleveland Center
Sun 03:59:35 PM 41.8983 -83.6408 212° Southwest 289 333 10,600 1,050 Climbing Cleveland Center
Sun 04:00:35 PM 41.8136 -83.6897 203° Southwest 307 353 12,000 694 Climbing Cleveland Center
Sun 04:01:36 PM 41.7386 -83.7611 215° Southwest 328 377 12,000  Level Cleveland Center
Sun 04:02:35 PM 41.6694 -83.8550 225° Southwest 338 389 12,000  Level Cleveland Center
Sun 04:03:35 PM 41.5894 -83.9456 220° Southwest 362 417 12,000  Level Cleveland Center
Sun 04:04:35 PM 41.4922 -83.9958 201° Southwest 388 447 12,000  Level Cleveland Center
Sun 04:05:35 PM 41.4006 -84.0631 209° Southwest 383 441 12,000  Level Cleveland Center
Sun 04:06:35 PM 41.3208 -84.1389 216° Southwest 372 428 12,000  Level Cleveland Center
Sun 04:07:35 PM 41.2328 -84.2197 215° Southwest 372 428 12,000  Level Cleveland Center
Sun 04:08:35 PM 41.1453 -84.2894 211° Southwest 372 428 12,000  Level Cleveland Center
Sun 04:09:07 PM 41.0844 -84.3308 207° Southwest 377 434 12,000 -64 Level Indianapolis Center
Sun 04:10:09 PM 40.9897 -84.3981 208° Southwest 383 441 11,900  Descending Indianapolis Center
Sun 04:11:11 PM 40.9017 -84.4778 214° Southwest 380 437 12,000 48 Climbing Indianapolis Center
Sun 04:12:13 PM 40.8094 -84.5514 211° Southwest 384 442 12,000 -49 Level Indianapolis Center
Sun 04:13:14 PM 40.7189 -84.6225 211° Southwest 378 435 11,900 -49 Descending Indianapolis Center
Sun 04:14:16 PM 40.6272 -84.6919 210° Southwest 378 435 11,900 48 Level Indianapolis Center
Sun 04:15:18 PM 40.5358 -84.7642 211° Southwest 379 436 12,000 -310 Climbing Indianapolis Center
Sun 04:16:12 PM 40.4417 -84.8358 210° Southwest 378 435 11,300 -495 Descending Indianapolis Center
Sun 04:17:07 PM 40.3586 -84.9008 211° Southwest 374 430 11,100 -569 Descending Indianapolis Center
Sun 04:18:08 PM 40.2711 -84.9675 210° Southwest 371 427 10,200 -492 Descending Indianapolis Center
Sun 04:19:09 PM 40.1686 -84.9636 178° South 364 419 10,100 -47 Descending Indianapolis Center
Sun 04:20:16 PM 40.0594 -84.9153 161° South 357 411 10,100  Level Indianapolis Center
Sun 04:21:11 PM 39.9728 -84.8728 159° South 361 415 10,100 -44 Level Indianapolis Center
Sun 04:22:31 PM 39.8594 -84.8278 163° South 357 411 10,000 -42 Descending Indianapolis Center
Sun 04:23:33 PM 39.7492 -84.7783 161° South 359 413 10,000  Level Indianapolis Center
Sun 04:24:35 PM 39.6650 -84.7214 152° Southeast 346 398 10,000  Level Indianapolis Center
Sun 04:25:36 PM 39.5733 -84.6886 165° South 340 391 10,000 -244 Level Indianapolis Center
Sun 04:26:38 PM 39.4992 -84.6808 175° South 285 328 9,500 -823 Descending Indianapolis Center
Sun 04:27:40 PM 39.4361 -84.6833 182° South 243 280 8,300 -1,548 Descending Indianapolis Center
Sun 04:28:42 PM 39.3750 -84.6828 180° South 224 258 6,300 -1,839 Descending Indianapolis Center
Sun 04:29:44 PM 39.3150 -84.6825 180° South 218 251 4,500 -1,306 Descending Indianapolis Center
Sun 04:30:46 PM 39.2553 -84.6850 182° South 212 244 3,600 -871 Descending Indianapolis Center

Login

Don't have an account? Register now (free) for customized features, flight alerts, and more!